sensor_id;sensor_type;location;lat;lon;timestamp;P1;durP1;ratioP1;P2;durP2;ratioP2
33152;SDS011;19509;43.862;26.176;2023-05-23T00:01:11;0.70;;;0.70;;
33152;SDS011;19509;43.862;26.176;2023-05-23T00:03:38;0.70;;;0.70;;
33152;SDS011;19509;43.862;26.176;2023-05-23T00:06:05;0.70;;;0.70;;
33152;SDS011;19509;43.862;26.176;2023-05-23T00:08:31;0.60;;;0.60;;
33152;SDS011;19509;43.862;26.176;2023-05-23T00:10:57;0.63;;;0.63;;
33152;SDS011;19509;43.862;26.176;2023-05-23T00:13:22;0.70;;;0.70;;
33152;SDS011;19509;43.862;26.176;2023-05-23T00:15:47;0.60;;;0.60;;
33152;SDS011;19509;43.862;26.176;2023-05-23T00:18:13;0.70;;;0.70;;
33152;SDS011;19509;43.862;26.176;2023-05-23T00:20:40;0.70;;;0.70;;
33152;SDS011;19509;43.862;26.176;2023-05-23T00:23:09;0.70;;;0.70;;
33152;SDS011;19509;43.862;26.176;2023-05-23T00:25:37;0.70;;;0.70;;
33152;SDS011;19509;43.862;26.176;2023-05-23T00:28:05;0.70;;;0.70;;
33152;SDS011;19509;43.862;26.176;2023-05-23T00:30:31;0.50;;;0.50;;
33152;SDS011;19509;43.862;26.176;2023-05-23T00:32:57;0.80;;;0.80;;
33152;SDS011;19509;43.862;26.176;2023-05-23T00:35:24;0.70;;;0.70;;
33152;SDS011;19509;43.862;26.176;2023-05-23T00:37:50;0.70;;;0.70;;
33152;SDS011;19509;43.862;26.176;2023-05-23T00:40:16;0.60;;;0.60;;
33152;SDS011;19509;43.862;26.176;2023-05-23T00:42:43;0.70;;;0.70;;
33152;SDS011;19509;43.862;26.176;2023-05-23T00:45:08;0.73;;;0.73;;
33152;SDS011;19509;43.862;26.176;2023-05-23T00:47:36;0.60;;;0.60;;
33152;SDS011;19509;43.862;26.176;2023-05-23T00:50:09;0.70;;;0.70;;
33152;SDS011;19509;43.862;26.176;2023-05-23T00:52:36;0.70;;;0.70;;
33152;SDS011;19509;43.862;26.176;2023-05-23T00:55:03;0.63;;;0.63;;
33152;SDS011;19509;43.862;26.176;2023-05-23T00:57:30;0.80;;;0.80;;
33152;SDS011;19509;43.862;26.176;2023-05-23T00:59:58;0.60;;;0.60;;
33152;SDS011;19509;43.862;26.176;2023-05-23T01:02:24;0.70;;;0.70;;
33152;SDS011;19509;43.862;26.176;2023-05-23T01:04:50;0.60;;;0.60;;
33152;SDS011;19509;43.862;26.176;2023-05-23T01:07:19;0.60;;;0.60;;
33152;SDS011;19509;43.862;26.176;2023-05-23T01:09:45;0.60;;;0.60;;
33152;SDS011;19509;43.862;26.176;2023-05-23T01:12:13;0.70;;;0.70;;
33152;SDS011;19509;43.862;26.176;2023-05-23T01:20:42;0.70;;;0.70;;
33152;SDS011;19509;43.862;26.176;2023-05-23T01:28:34;0.70;;;0.70;;
33152;SDS011;19509;43.862;26.176;2023-05-23T01:31:02;0.60;;;0.60;;
33152;SDS011;19509;43.862;26.176;2023-05-23T01:33:30;0.60;;;0.60;;
33152;SDS011;19509;43.862;26.176;2023-05-23T01:35:57;0.70;;;0.70;;
33152;SDS011;19509;43.862;26.176;2023-05-23T01:38:25;0.70;;;0.70;;
33152;SDS011;19509;43.862;26.176;2023-05-23T01:40:52;0.60;;;0.60;;
33152;SDS011;19509;43.862;26.176;2023-05-23T01:43:18;0.70;;;0.70;;
33152;SDS011;19509;43.862;26.176;2023-05-23T01:45:44;0.80;;;0.80;;
33152;SDS011;19509;43.862;26.176;2023-05-23T01:48:10;0.60;;;0.60;;
33152;SDS011;19509;43.862;26.176;2023-05-23T01:50:39;0.70;;;0.70;;
33152;SDS011;19509;43.862;26.176;2023-05-23T01:53:09;0.70;;;0.70;;
33152;SDS011;19509;43.862;26.176;2023-05-23T01:55:36;0.70;;;0.70;;
33152;SDS011;19509;43.862;26.176;2023-05-23T01:58:01;0.67;;;0.67;;
33152;SDS011;19509;43.862;26.176;2023-05-23T02:00:28;0.80;;;0.80;;
33152;SDS011;19509;43.862;26.176;2023-05-23T02:02:53;0.60;;;0.60;;
33152;SDS011;19509;43.862;26.176;2023-05-23T02:05:18;0.70;;;0.70;;
33152;SDS011;19509;43.862;26.176;2023-05-23T02:07:44;0.70;;;0.70;;
33152;SDS011;19509;43.862;26.176;2023-05-23T02:10:10;0.70;;;0.70;;
33152;SDS011;19509;43.862;26.176;2023-05-23T02:12:35;0.83;;;0.83;;
33152;SDS011;19509;43.862;26.176;2023-05-23T02:15:00;0.60;;;0.60;;
33152;SDS011;19509;43.862;26.176;2023-05-23T02:17:26;0.60;;;0.60;;
33152;SDS011;19509;43.862;26.176;2023-05-23T02:19:51;0.77;;;0.77;;
33152;SDS011;19509;43.862;26.176;2023-05-23T02:22:21;0.70;;;0.70;;
33152;SDS011;19509;43.862;26.176;2023-05-23T02:24:48;0.80;;;0.80;;
33152;SDS011;19509;43.862;26.176;2023-05-23T02:27:14;0.70;;;0.70;;
33152;SDS011;19509;43.862;26.176;2023-05-23T02:29:40;0.60;;;0.60;;
33152;SDS011;19509;43.862;26.176;2023-05-23T02:32:05;0.60;;;0.60;;
33152;SDS011;19509;43.862;26.176;2023-05-23T02:34:31;0.70;;;0.70;;
33152;SDS011;19509;43.862;26.176;2023-05-23T02:36:56;0.60;;;0.60;;
33152;SDS011;19509;43.862;26.176;2023-05-23T02:39:22;0.80;;;0.80;;
33152;SDS011;19509;43.862;26.176;2023-05-23T02:41:47;0.70;;;0.70;;
33152;SDS011;19509;43.862;26.176;2023-05-23T02:44:13;0.70;;;0.70;;
33152;SDS011;19509;43.862;26.176;2023-05-23T02:46:39;0.80;;;0.80;;
33152;SDS011;19509;43.862;26.176;2023-05-23T02:49:04;0.70;;;0.70;;
33152;SDS011;19509;43.862;26.176;2023-05-23T02:51:30;0.80;;;0.80;;
33152;SDS011;19509;43.862;26.176;2023-05-23T02:53:56;0.70;;;0.70;;
33152;SDS011;19509;43.862;26.176;2023-05-23T02:56:22;0.80;;;0.80;;
33152;SDS011;19509;43.862;26.176;2023-05-23T02:58:47;0.60;;;0.60;;
33152;SDS011;19509;43.862;26.176;2023-05-23T03:01:13;0.83;;;0.73;;
33152;SDS011;19509;43.862;26.176;2023-05-23T03:03:39;0.70;;;0.70;;
33152;SDS011;19509;43.862;26.176;2023-05-23T03:06:05;0.60;;;0.60;;
33152;SDS011;19509;43.862;26.176;2023-05-23T03:08:31;0.70;;;0.70;;
33152;SDS011;19509;43.862;26.176;2023-05-23T03:10:57;0.70;;;0.70;;
33152;SDS011;19509;43.862;26.176;2023-05-23T03:13:22;0.70;;;0.70;;
33152;SDS011;19509;43.862;26.176;2023-05-23T03:15:47;0.67;;;0.67;;
33152;SDS011;19509;43.862;26.176;2023-05-23T03:18:13;0.70;;;0.70;;
33152;SDS011;19509;43.862;26.176;2023-05-23T03:20:39;0.70;;;0.70;;
33152;SDS011;19509;43.862;26.176;2023-05-23T03:23:04;0.60;;;0.60;;
33152;SDS011;19509;43.862;26.176;2023-05-23T03:25:30;0.70;;;0.70;;
33152;SDS011;19509;43.862;26.176;2023-05-23T03:27:55;0.60;;;0.60;;
33152;SDS011;19509;43.862;26.176;2023-05-23T03:30:21;0.70;;;0.70;;
33152;SDS011;19509;43.862;26.176;2023-05-23T03:32:46;1.00;;;0.73;;
33152;SDS011;19509;43.862;26.176;2023-05-23T03:35:12;0.70;;;0.70;;
33152;SDS011;19509;43.862;26.176;2023-05-23T03:37:37;0.70;;;0.70;;
33152;SDS011;19509;43.862;26.176;2023-05-23T03:40:03;0.67;;;0.67;;
33152;SDS011;19509;43.862;26.176;2023-05-23T03:42:30;0.80;;;0.80;;
33152;SDS011;19509;43.862;26.176;2023-05-23T03:44:56;0.70;;;0.70;;
33152;SDS011;19509;43.862;26.176;2023-05-23T03:47:22;0.60;;;0.60;;
33152;SDS011;19509;43.862;26.176;2023-05-23T03:49:50;0.70;;;0.70;;
33152;SDS011;19509;43.862;26.176;2023-05-23T03:52:15;0.87;;;0.70;;
33152;SDS011;19509;43.862;26.176;2023-05-23T03:54:41;0.70;;;0.70;;
33152;SDS011;19509;43.862;26.176;2023-05-23T03:57:07;0.83;;;0.83;;
33152;SDS011;19509;43.862;26.176;2023-05-23T03:59:33;0.70;;;0.70;;
33152;SDS011;19509;43.862;26.176;2023-05-23T04:01:59;0.70;;;0.70;;
33152;SDS011;19509;43.862;26.176;2023-05-23T04:04:25;0.70;;;0.70;;
33152;SDS011;19509;43.862;26.176;2023-05-23T04:06:51;0.70;;;0.70;;
33152;SDS011;19509;43.862;26.176;2023-05-23T04:09:17;0.70;;;0.70;;
33152;SDS011;19509;43.862;26.176;2023-05-23T04:11:42;0.70;;;0.70;;
33152;SDS011;19509;43.862;26.176;2023-05-23T04:14:08;0.60;;;0.60;;
33152;SDS011;19509;43.862;26.176;2023-05-23T04:16:34;0.63;;;0.63;;
33152;SDS011;19509;43.862;26.176;2023-05-23T04:19:00;0.67;;;0.67;;
33152;SDS011;19509;43.862;26.176;2023-05-23T04:21:26;0.63;;;0.63;;
33152;SDS011;19509;43.862;26.176;2023-05-23T04:23:52;0.70;;;0.70;;
33152;SDS011;19509;43.862;26.176;2023-05-23T04:26:18;0.60;;;0.60;;
33152;SDS011;19509;43.862;26.176;2023-05-23T04:28:45;0.70;;;0.70;;
33152;SDS011;19509;43.862;26.176;2023-05-23T04:31:12;0.60;;;0.60;;
33152;SDS011;19509;43.862;26.176;2023-05-23T04:33:38;0.70;;;0.70;;
33152;SDS011;19509;43.862;26.176;2023-05-23T04:36:04;0.80;;;0.80;;
33152;SDS011;19509;43.862;26.176;2023-05-23T04:38:33;0.70;;;0.70;;
33152;SDS011;19509;43.862;26.176;2023-05-23T04:40:58;0.70;;;0.70;;
33152;SDS011;19509;43.862;26.176;2023-05-23T04:43:24;0.60;;;0.60;;
33152;SDS011;19509;43.862;26.176;2023-05-23T04:45:51;0.67;;;0.67;;
33152;SDS011;19509;43.862;26.176;2023-05-23T04:48:21;0.70;;;0.70;;
33152;SDS011;19509;43.862;26.176;2023-05-23T04:50:47;0.70;;;0.70;;
33152;SDS011;19509;43.862;26.176;2023-05-23T04:53:12;0.80;;;0.80;;
33152;SDS011;19509;43.862;26.176;2023-05-23T04:55:38;0.60;;;0.60;;
33152;SDS011;19509;43.862;26.176;2023-05-23T04:58:04;0.60;;;0.60;;
33152;SDS011;19509;43.862;26.176;2023-05-23T05:00:29;0.70;;;0.70;;
33152;SDS011;19509;43.862;26.176;2023-05-23T05:02:55;0.60;;;0.60;;
33152;SDS011;19509;43.862;26.176;2023-05-23T05:05:20;0.80;;;0.80;;
33152;SDS011;19509;43.862;26.176;2023-05-23T05:07:46;0.70;;;0.70;;
33152;SDS011;19509;43.862;26.176;2023-05-23T05:10:11;0.70;;;0.70;;
33152;SDS011;19509;43.862;26.176;2023-05-23T05:12:44;0.90;;;0.90;;
33152;SDS011;19509;43.862;26.176;2023-05-23T05:15:16;0.97;;;0.97;;
33152;SDS011;19509;43.862;26.176;2023-05-23T05:17:42;0.70;;;0.70;;
33152;SDS011;19509;43.862;26.176;2023-05-23T05:20:08;0.93;;;0.83;;
33152;SDS011;19509;43.862;26.176;2023-05-23T05:22:38;0.77;;;0.77;;
33152;SDS011;19509;43.862;26.176;2023-05-23T05:25:07;0.70;;;0.70;;
33152;SDS011;19509;43.862;26.176;2023-05-23T05:27:33;0.80;;;0.80;;
33152;SDS011;19509;43.862;26.176;2023-05-23T05:30:05;0.80;;;0.80;;
33152;SDS011;19509;43.862;26.176;2023-05-23T05:32:32;0.77;;;0.77;;
33152;SDS011;19509;43.862;26.176;2023-05-23T05:35:00;0.70;;;0.70;;
33152;SDS011;19509;43.862;26.176;2023-05-23T05:37:27;0.83;;;0.83;;
33152;SDS011;19509;43.862;26.176;2023-05-23T05:39:53;0.70;;;0.70;;
33152;SDS011;19509;43.862;26.176;2023-05-23T05:42:19;0.70;;;0.70;;
33152;SDS011;19509;43.862;26.176;2023-05-23T05:44:46;0.83;;;0.83;;
33152;SDS011;19509;43.862;26.176;2023-05-23T05:47:12;0.70;;;0.70;;
33152;SDS011;19509;43.862;26.176;2023-05-23T05:49:37;0.90;;;0.90;;
33152;SDS011;19509;43.862;26.176;2023-05-23T05:52:03;0.73;;;0.73;;
33152;SDS011;19509;43.862;26.176;2023-05-23T05:54:31;0.80;;;0.80;;
33152;SDS011;19509;43.862;26.176;2023-05-23T05:56:56;0.70;;;0.70;;
33152;SDS011;19509;43.862;26.176;2023-05-23T05:59:21;0.90;;;0.90;;
33152;SDS011;19509;43.862;26.176;2023-05-23T06:01:47;0.90;;;0.90;;
33152;SDS011;19509;43.862;26.176;2023-05-23T06:04:15;1.00;;;1.00;;
33152;SDS011;19509;43.862;26.176;2023-05-23T06:06:41;0.97;;;0.97;;
33152;SDS011;19509;43.862;26.176;2023-05-23T06:09:06;0.70;;;0.70;;
33152;SDS011;19509;43.862;26.176;2023-05-23T06:11:32;0.80;;;0.80;;
33152;SDS011;19509;43.862;26.176;2023-05-23T06:13:57;0.80;;;0.80;;
33152;SDS011;19509;43.862;26.176;2023-05-23T06:16:23;0.70;;;0.70;;
33152;SDS011;19509;43.862;26.176;2023-05-23T06:18:48;0.70;;;0.70;;
33152;SDS011;19509;43.862;26.176;2023-05-23T06:21:14;0.70;;;0.70;;
33152;SDS011;19509;43.862;26.176;2023-05-23T06:23:40;0.80;;;0.80;;
33152;SDS011;19509;43.862;26.176;2023-05-23T06:26:05;0.70;;;0.70;;
33152;SDS011;19509;43.862;26.176;2023-05-23T06:28:34;0.80;;;0.80;;
33152;SDS011;19509;43.862;26.176;2023-05-23T06:31:02;0.70;;;0.70;;
33152;SDS011;19509;43.862;26.176;2023-05-23T06:33:28;0.70;;;0.70;;
33152;SDS011;19509;43.862;26.176;2023-05-23T06:35:53;0.67;;;0.67;;
33152;SDS011;19509;43.862;26.176;2023-05-23T06:38:19;0.87;;;0.87;;
33152;SDS011;19509;43.862;26.176;2023-05-23T06:40:45;0.60;;;0.60;;
33152;SDS011;19509;43.862;26.176;2023-05-23T06:43:11;0.80;;;0.80;;
33152;SDS011;19509;43.862;26.176;2023-05-23T06:45:36;0.70;;;0.70;;
33152;SDS011;19509;43.862;26.176;2023-05-23T06:48:02;0.70;;;0.70;;
33152;SDS011;19509;43.862;26.176;2023-05-23T06:50:28;0.70;;;0.70;;
33152;SDS011;19509;43.862;26.176;2023-05-23T06:52:54;0.70;;;0.70;;
33152;SDS011;19509;43.862;26.176;2023-05-23T06:55:20;0.60;;;0.60;;
33152;SDS011;19509;43.862;26.176;2023-05-23T06:57:46;0.70;;;0.70;;
33152;SDS011;19509;43.862;26.176;2023-05-23T07:00:14;0.63;;;0.63;;
33152;SDS011;19509;43.862;26.176;2023-05-23T07:02:40;0.67;;;0.67;;
33152;SDS011;19509;43.862;26.176;2023-05-23T07:05:06;0.60;;;0.60;;
33152;SDS011;19509;43.862;26.176;2023-05-23T07:07:31;0.57;;;0.57;;
33152;SDS011;19509;43.862;26.176;2023-05-23T07:09:57;0.80;;;0.80;;
33152;SDS011;19509;43.862;26.176;2023-05-23T07:12:22;0.50;;;0.50;;
33152;SDS011;19509;43.862;26.176;2023-05-23T07:14:48;0.70;;;0.70;;
33152;SDS011;19509;43.862;26.176;2023-05-23T07:17:13;0.60;;;0.60;;
33152;SDS011;19509;43.862;26.176;2023-05-23T07:19:39;0.70;;;0.70;;
33152;SDS011;19509;43.862;26.176;2023-05-23T07:22:05;0.60;;;0.60;;
33152;SDS011;19509;43.862;26.176;2023-05-23T07:24:30;0.70;;;0.70;;
33152;SDS011;19509;43.862;26.176;2023-05-23T07:26:56;1.23;;;0.60;;
33152;SDS011;19509;43.862;26.176;2023-05-23T07:29:21;0.60;;;0.60;;
33152;SDS011;19509;43.862;26.176;2023-05-23T07:31:47;0.60;;;0.60;;
33152;SDS011;19509;43.862;26.176;2023-05-23T07:34:12;0.60;;;0.60;;
33152;SDS011;19509;43.862;26.176;2023-05-23T07:36:38;0.60;;;0.60;;
33152;SDS011;19509;43.862;26.176;2023-05-23T07:39:04;0.60;;;0.60;;
33152;SDS011;19509;43.862;26.176;2023-05-23T07:41:31;0.60;;;0.60;;
33152;SDS011;19509;43.862;26.176;2023-05-23T07:43:56;0.60;;;0.60;;
33152;SDS011;19509;43.862;26.176;2023-05-23T07:46:22;0.50;;;0.50;;
33152;SDS011;19509;43.862;26.176;2023-05-23T07:48:47;0.63;;;0.63;;
33152;SDS011;19509;43.862;26.176;2023-05-23T07:51:13;0.70;;;0.70;;
33152;SDS011;19509;43.862;26.176;2023-05-23T07:53:38;0.70;;;0.70;;
33152;SDS011;19509;43.862;26.176;2023-05-23T07:56:04;0.60;;;0.60;;
33152;SDS011;19509;43.862;26.176;2023-05-23T07:58:30;0.73;;;0.60;;
33152;SDS011;19509;43.862;26.176;2023-05-23T08:00:56;0.60;;;0.60;;
33152;SDS011;19509;43.862;26.176;2023-05-23T08:03:22;0.60;;;0.60;;
33152;SDS011;19509;43.862;26.176;2023-05-23T08:05:48;0.60;;;0.60;;
33152;SDS011;19509;43.862;26.176;2023-05-23T08:08:14;0.50;;;0.50;;
33152;SDS011;19509;43.862;26.176;2023-05-23T08:10:39;0.50;;;0.50;;
33152;SDS011;19509;43.862;26.176;2023-05-23T08:13:05;0.60;;;0.60;;
33152;SDS011;19509;43.862;26.176;2023-05-23T08:15:31;0.50;;;0.50;;
33152;SDS011;19509;43.862;26.176;2023-05-23T08:17:57;0.57;;;0.57;;
33152;SDS011;19509;43.862;26.176;2023-05-23T08:20:24;0.60;;;0.60;;
33152;SDS011;19509;43.862;26.176;2023-05-23T08:22:56;0.60;;;0.60;;
33152;SDS011;19509;43.862;26.176;2023-05-23T08:25:22;0.50;;;0.50;;
33152;SDS011;19509;43.862;26.176;2023-05-23T08:27:49;0.60;;;0.60;;
33152;SDS011;19509;43.862;26.176;2023-05-23T08:30:15;0.63;;;0.63;;
33152;SDS011;19509;43.862;26.176;2023-05-23T08:32:41;0.50;;;0.50;;
33152;SDS011;19509;43.862;26.176;2023-05-23T08:35:06;0.70;;;0.70;;
33152;SDS011;19509;43.862;26.176;2023-05-23T08:37:32;0.50;;;0.50;;
33152;SDS011;19509;43.862;26.176;2023-05-23T08:39:58;0.40;;;0.40;;
33152;SDS011;19509;43.862;26.176;2023-05-23T08:42:24;0.50;;;0.50;;
33152;SDS011;19509;43.862;26.176;2023-05-23T08:44:49;0.60;;;0.60;;
33152;SDS011;19509;43.862;26.176;2023-05-23T08:47:15;1.37;;;0.70;;
33152;SDS011;19509;43.862;26.176;2023-05-23T08:49:42;0.50;;;0.50;;
33152;SDS011;19509;43.862;26.176;2023-05-23T08:52:09;0.60;;;0.60;;
33152;SDS011;19509;43.862;26.176;2023-05-23T08:54:38;0.70;;;0.70;;
33152;SDS011;19509;43.862;26.176;2023-05-23T08:57:05;0.60;;;0.60;;
33152;SDS011;19509;43.862;26.176;2023-05-23T08:59:31;0.50;;;0.50;;
33152;SDS011;19509;43.862;26.176;2023-05-23T09:01:57;0.50;;;0.50;;
33152;SDS011;19509;43.862;26.176;2023-05-23T09:04:24;0.70;;;0.70;;
33152;SDS011;19509;43.862;26.176;2023-05-23T09:06:50;0.60;;;0.60;;
33152;SDS011;19509;43.862;26.176;2023-05-23T09:09:16;0.60;;;0.60;;
33152;SDS011;19509;43.862;26.176;2023-05-23T09:11:42;0.70;;;0.70;;
33152;SDS011;19509;43.862;26.176;2023-05-23T09:14:09;0.50;;;0.50;;
33152;SDS011;19509;43.862;26.176;2023-05-23T09:16:35;0.50;;;0.50;;
33152;SDS011;19509;43.862;26.176;2023-05-23T09:19:13;0.50;;;0.50;;
33152;SDS011;19509;43.862;26.176;2023-05-23T09:21:45;0.60;;;0.60;;
33152;SDS011;19509;43.862;26.176;2023-05-23T09:24:11;0.50;;;0.50;;
33152;SDS011;19509;43.862;26.176;2023-05-23T09:26:36;0.50;;;0.50;;
33152;SDS011;19509;43.862;26.176;2023-05-23T09:29:05;0.50;;;0.50;;
33152;SDS011;19509;43.862;26.176;2023-05-23T09:31:31;0.40;;;0.40;;
33152;SDS011;19509;43.862;26.176;2023-05-23T09:33:57;0.50;;;0.50;;
33152;SDS011;19509;43.862;26.176;2023-05-23T09:36:26;0.40;;;0.40;;
33152;SDS011;19509;43.862;26.176;2023-05-23T09:38:54;0.40;;;0.40;;
33152;SDS011;19509;43.862;26.176;2023-05-23T09:41:20;0.50;;;0.50;;
33152;SDS011;19509;43.862;26.176;2023-05-23T09:43:49;0.50;;;0.50;;
33152;SDS011;19509;43.862;26.176;2023-05-23T09:46:16;0.50;;;0.50;;
33152;SDS011;19509;43.862;26.176;2023-05-23T09:48:46;0.60;;;0.60;;
33152;SDS011;19509;43.862;26.176;2023-05-23T09:51:12;0.50;;;0.50;;
33152;SDS011;19509;43.862;26.176;2023-05-23T09:53:37;0.60;;;0.60;;
33152;SDS011;19509;43.862;26.176;2023-05-23T09:56:03;0.50;;;0.50;;
33152;SDS011;19509;43.862;26.176;2023-05-23T09:58:29;0.50;;;0.50;;
33152;SDS011;19509;43.862;26.176;2023-05-23T10:00:58;0.53;;;0.53;;
33152;SDS011;19509;43.862;26.176;2023-05-23T10:03:34;0.50;;;0.50;;
33152;SDS011;19509;43.862;26.176;2023-05-23T10:06:07;0.50;;;0.50;;
33152;SDS011;19509;43.862;26.176;2023-05-23T10:08:42;0.50;;;0.50;;
33152;SDS011;19509;43.862;26.176;2023-05-23T10:13:44;0.50;;;0.50;;
33152;SDS011;19509;43.862;26.176;2023-05-23T10:18:58;0.50;;;0.50;;
33152;SDS011;19509;43.862;26.176;2023-05-23T10:21:34;0.40;;;0.40;;
33152;SDS011;19509;43.862;26.176;2023-05-23T10:24:04;0.50;;;0.50;;
33152;SDS011;19509;43.862;26.176;2023-05-23T10:26:31;0.50;;;0.50;;
33152;SDS011;19509;43.862;26.176;2023-05-23T10:28:57;0.53;;;0.53;;
33152;SDS011;19509;43.862;26.176;2023-05-23T10:31:25;0.60;;;0.60;;
33152;SDS011;19509;43.862;26.176;2023-05-23T10:33:55;0.60;;;0.60;;
33152;SDS011;19509;43.862;26.176;2023-05-23T10:36:43;0.93;;;0.70;;
33152;SDS011;19509;43.862;26.176;2023-05-23T10:39:25;1.40;;;0.50;;
33152;SDS011;19509;43.862;26.176;2023-05-23T10:42:00;0.60;;;0.60;;
33152;SDS011;19509;43.862;26.176;2023-05-23T10:44:31;0.47;;;0.47;;
33152;SDS011;19509;43.862;26.176;2023-05-23T10:46:57;0.50;;;0.50;;
33152;SDS011;19509;43.862;26.176;2023-05-23T10:49:59;0.63;;;0.50;;
33152;SDS011;19509;43.862;26.176;2023-05-23T10:52:19;0.50;;;0.50;;
33152;SDS011;19509;43.862;26.176;2023-05-23T10:54:49;0.50;;;0.50;;
33152;SDS011;19509;43.862;26.176;2023-05-23T10:57:17;0.50;;;0.50;;
33152;SDS011;19509;43.862;26.176;2023-05-23T10:59:45;0.40;;;0.40;;
33152;SDS011;19509;43.862;26.176;2023-05-23T11:02:18;0.40;;;0.40;;
33152;SDS011;19509;43.862;26.176;2023-05-23T11:05:13;0.50;;;0.50;;
33152;SDS011;19509;43.862;26.176;2023-05-23T11:11:00;0.50;;;0.50;;
33152;SDS011;19509;43.862;26.176;2023-05-23T11:16:34;0.60;;;0.60;;
33152;SDS011;19509;43.862;26.176;2023-05-23T11:21:46;0.40;;;0.40;;
33152;SDS011;19509;43.862;26.176;2023-05-23T11:24:14;0.60;;;0.60;;
33152;SDS011;19509;43.862;26.176;2023-05-23T11:26:50;0.50;;;0.50;;
33152;SDS011;19509;43.862;26.176;2023-05-23T11:29:24;0.50;;;0.50;;
33152;SDS011;19509;43.862;26.176;2023-05-23T11:31:50;0.43;;;0.43;;
33152;SDS011;19509;43.862;26.176;2023-05-23T11:34:16;0.43;;;0.43;;
33152;SDS011;19509;43.862;26.176;2023-05-23T11:36:42;0.50;;;0.50;;
33152;SDS011;19509;43.862;26.176;2023-05-23T11:39:08;0.50;;;0.50;;
33152;SDS011;19509;43.862;26.176;2023-05-23T11:41:34;0.50;;;0.50;;
33152;SDS011;19509;43.862;26.176;2023-05-23T11:44:00;0.40;;;0.40;;
33152;SDS011;19509;43.862;26.176;2023-05-23T11:46:26;0.60;;;0.60;;
33152;SDS011;19509;43.862;26.176;2023-05-23T11:48:51;0.40;;;0.40;;
33152;SDS011;19509;43.862;26.176;2023-05-23T11:51:17;0.40;;;0.40;;
33152;SDS011;19509;43.862;26.176;2023-05-23T11:53:44;0.43;;;0.43;;
33152;SDS011;19509;43.862;26.176;2023-05-23T11:56:10;0.50;;;0.50;;
33152;SDS011;19509;43.862;26.176;2023-05-23T11:58:36;0.50;;;0.50;;
33152;SDS011;19509;43.862;26.176;2023-05-23T12:01:06;0.50;;;0.50;;
33152;SDS011;19509;43.862;26.176;2023-05-23T12:03:34;0.50;;;0.50;;
33152;SDS011;19509;43.862;26.176;2023-05-23T12:06:08;0.57;;;0.57;;
33152;SDS011;19509;43.862;26.176;2023-05-23T12:08:34;0.50;;;0.50;;
33152;SDS011;19509;43.862;26.176;2023-05-23T12:11:00;0.70;;;0.70;;
33152;SDS011;19509;43.862;26.176;2023-05-23T12:13:29;0.50;;;0.50;;
33152;SDS011;19509;43.862;26.176;2023-05-23T12:15:55;0.50;;;0.50;;
33152;SDS011;19509;43.862;26.176;2023-05-23T12:18:22;0.47;;;0.47;;
33152;SDS011;19509;43.862;26.176;2023-05-23T12:20:48;0.50;;;0.50;;
33152;SDS011;19509;43.862;26.176;2023-05-23T12:23:20;0.50;;;0.50;;
33152;SDS011;19509;43.862;26.176;2023-05-23T12:25:53;0.50;;;0.50;;
33152;SDS011;19509;43.862;26.176;2023-05-23T12:28:20;0.40;;;0.40;;
33152;SDS011;19509;43.862;26.176;2023-05-23T12:30:58;0.50;;;0.50;;
33152;SDS011;19509;43.862;26.176;2023-05-23T12:33:24;0.50;;;0.50;;
33152;SDS011;19509;43.862;26.176;2023-05-23T12:35:49;0.40;;;0.40;;
33152;SDS011;19509;43.862;26.176;2023-05-23T12:38:15;0.53;;;0.53;;
33152;SDS011;19509;43.862;26.176;2023-05-23T12:40:41;0.50;;;0.50;;
33152;SDS011;19509;43.862;26.176;2023-05-23T12:43:08;0.50;;;0.50;;
33152;SDS011;19509;43.862;26.176;2023-05-23T12:45:35;0.50;;;0.50;;
33152;SDS011;19509;43.862;26.176;2023-05-23T12:48:07;0.40;;;0.40;;
33152;SDS011;19509;43.862;26.176;2023-05-23T12:50:32;0.50;;;0.50;;
33152;SDS011;19509;43.862;26.176;2023-05-23T12:52:58;0.50;;;0.50;;
33152;SDS011;19509;43.862;26.176;2023-05-23T12:55:24;0.50;;;0.50;;
33152;SDS011;19509;43.862;26.176;2023-05-23T12:57:49;0.40;;;0.40;;
33152;SDS011;19509;43.862;26.176;2023-05-23T13:00:15;0.50;;;0.50;;
33152;SDS011;19509;43.862;26.176;2023-05-23T13:02:41;0.50;;;0.50;;
33152;SDS011;19509;43.862;26.176;2023-05-23T13:05:07;0.40;;;0.40;;
33152;SDS011;19509;43.862;26.176;2023-05-23T13:07:33;1.50;;;0.60;;
33152;SDS011;19509;43.862;26.176;2023-05-23T13:09:58;0.47;;;0.47;;
33152;SDS011;19509;43.862;26.176;2023-05-23T13:12:24;0.40;;;0.40;;
33152;SDS011;19509;43.862;26.176;2023-05-23T13:14:50;0.60;;;0.60;;
33152;SDS011;19509;43.862;26.176;2023-05-23T13:17:16;0.50;;;0.50;;
33152;SDS011;19509;43.862;26.176;2023-05-23T13:19:41;0.47;;;0.47;;
33152;SDS011;19509;43.862;26.176;2023-05-23T13:22:07;0.47;;;0.47;;
33152;SDS011;19509;43.862;26.176;2023-05-23T13:24:39;0.57;;;0.57;;
33152;SDS011;19509;43.862;26.176;2023-05-23T13:27:05;0.40;;;0.40;;
33152;SDS011;19509;43.862;26.176;2023-05-23T13:29:32;0.40;;;0.40;;
33152;SDS011;19509;43.862;26.176;2023-05-23T13:31:58;0.60;;;0.60;;
33152;SDS011;19509;43.862;26.176;2023-05-23T13:34:24;0.50;;;0.50;;
33152;SDS011;19509;43.862;26.176;2023-05-23T13:36:50;0.50;;;0.50;;
33152;SDS011;19509;43.862;26.176;2023-05-23T13:39:16;0.50;;;0.50;;
33152;SDS011;19509;43.862;26.176;2023-05-23T13:41:41;0.70;;;0.70;;
33152;SDS011;19509;43.862;26.176;2023-05-23T13:44:07;0.53;;;0.53;;
33152;SDS011;19509;43.862;26.176;2023-05-23T13:46:32;0.57;;;0.57;;
33152;SDS011;19509;43.862;26.176;2023-05-23T13:48:58;0.57;;;0.57;;
33152;SDS011;19509;43.862;26.176;2023-05-23T13:51:23;0.50;;;0.50;;
33152;SDS011;19509;43.862;26.176;2023-05-23T13:53:49;0.53;;;0.50;;
33152;SDS011;19509;43.862;26.176;2023-05-23T13:56:14;0.53;;;0.53;;
33152;SDS011;19509;43.862;26.176;2023-05-23T13:58:40;0.50;;;0.50;;
33152;SDS011;19509;43.862;26.176;2023-05-23T14:01:10;0.50;;;0.50;;
33152;SDS011;19509;43.862;26.176;2023-05-23T14:03:36;0.47;;;0.47;;
33152;SDS011;19509;43.862;26.176;2023-05-23T14:06:02;0.50;;;0.50;;
33152;SDS011;19509;43.862;26.176;2023-05-23T14:08:29;0.57;;;0.57;;
33152;SDS011;19509;43.862;26.176;2023-05-23T14:10:55;0.50;;;0.50;;
33152;SDS011;19509;43.862;26.176;2023-05-23T14:13:20;0.60;;;0.60;;
33152;SDS011;19509;43.862;26.176;2023-05-23T14:15:47;0.50;;;0.50;;
33152;SDS011;19509;43.862;26.176;2023-05-23T14:18:12;0.50;;;0.50;;
33152;SDS011;19509;43.862;26.176;2023-05-23T14:20:38;0.50;;;0.50;;
33152;SDS011;19509;43.862;26.176;2023-05-23T14:23:03;0.50;;;0.50;;
33152;SDS011;19509;43.862;26.176;2023-05-23T14:25:29;0.50;;;0.50;;
33152;SDS011;19509;43.862;26.176;2023-05-23T14:27:54;0.50;;;0.50;;
33152;SDS011;19509;43.862;26.176;2023-05-23T14:30:20;0.50;;;0.50;;
33152;SDS011;19509;43.862;26.176;2023-05-23T14:32:45;0.50;;;0.50;;
33152;SDS011;19509;43.862;26.176;2023-05-23T14:35:11;0.50;;;0.50;;
33152;SDS011;19509;43.862;26.176;2023-05-23T14:37:36;0.60;;;0.60;;
33152;SDS011;19509;43.862;26.176;2023-05-23T14:40:05;0.97;;;0.53;;
33152;SDS011;19509;43.862;26.176;2023-05-23T14:42:31;0.50;;;0.50;;
33152;SDS011;19509;43.862;26.176;2023-05-23T14:44:56;0.60;;;0.60;;
33152;SDS011;19509;43.862;26.176;2023-05-23T14:47:22;0.50;;;0.50;;
33152;SDS011;19509;43.862;26.176;2023-05-23T14:49:47;0.50;;;0.50;;
33152;SDS011;19509;43.862;26.176;2023-05-23T14:52:13;0.47;;;0.47;;
33152;SDS011;19509;43.862;26.176;2023-05-23T14:54:38;0.50;;;0.50;;
33152;SDS011;19509;43.862;26.176;2023-05-23T14:57:07;0.50;;;0.50;;